Volcan De Teneguia — ECLA — position and weather

sailwx.info

Track history (hours):
 
Tides and Currents Weather Stations Pressure Air Temp Water Temp Dewpoint Dewpoint Depression Visibility Wind Speed Wind Dir Waves Ship Positions

Volcan De Teneguia

Last reported at 2015-Mar-29 19:33 UTC. Time now 2015-Mar-30 02:20 UTC.
Position N 34°57' W 008°41'.

Length 145 m; draft 5.4 m.

Type: Cargo ship. MMSI: 225317000.

Date/timePositionNaut miles runAvg speedWind from/ knotsBaromVisibWave heightAir tempDewpointWater temp
2015-Mar-29 19:33N 34°57' W 008°41'1514.0
2015-Mar-29 18:28N 34°46' W 008°53'4513.8
2015-Mar-29 15:13N 34°14' W 009°32'1513.4
2015-Mar-29 14:05N 34°03' W 009°44'713.4
2015-Mar-29 13:33N 33°58' W 009°51'5213.1
2015-Mar-29 09:33N 33°20' W 010°35'8513.4
2015-Mar-29 03:13N 32°20' W 011°45'25913.2
2015-Mar-28 07:32N 29°14' W 015°15'1312.9
2015-Mar-28 06:33N 29°05' W 015°26'1312.9
2015-Mar-28 05:33N 28°56' W 015°36'1312.9
2015-Mar-28 04:33N 28°47' W 015°47'1313.2
2015-Mar-28 03:33N 28°37' W 015°57'1313.0
2015-Mar-28 02:33N 28°30' W 016°09'4 1.0
2015-Mar-27 22:24N 28°29' W 016°14'0 0.0
2015-Mar-27 21:30N 28°29' W 016°14'0 0.0
2015-Mar-27 20:30N 28°29' W 016°14'9 9.1
2015-Mar-27 19:33N 28°25' W 016°05'1413.9
2015-Mar-27 18:33N 28°21' W 015°50'1414.2
2015-Mar-27 17:33N 28°16' W 015°35'1312.5
2015-Mar-27 16:33N 28°09' W 015°23'2 2.0
2015-Mar-27 15:32N 28°09' W 015°25'0 0.0
2015-Mar-27 14:32N 28°09' W 015°25'0 0.0
2015-Mar-27 13:32N 28°09' W 015°25'0 0.0
2015-Mar-27 12:32N 28°09' W 015°25'0 0.0
2015-Mar-27 11:32N 28°09' W 015°25'0 0.0
2015-Mar-27 10:11N 28°09' W 015°25'0 0.0
2015-Mar-27 09:26N 28°09' W 015°25'0 0.1
2015-Mar-27 08:26N 28°09' W 015°25'0 0.1
2015-Mar-27 07:25N 28°09' W 015°25'2 2.3
2015-Mar-27 06:33N 28°07' W 015°24'1212.1
2015-Mar-27 05:33N 28°16' W 015°14'1312.9
2015-Mar-27 04:33N 28°26' W 015°05'1313.1
2015-Mar-27 03:33N 28°36' W 014°55'  
2015-Mar-21 19:29N 29°03' W 015°28'1313.9
2015-Mar-21 18:33N 28°54' W 015°39'1413.8
2015-Mar-21 17:33N 28°44' W 015°50'1413.9
2015-Mar-21 16:33N 28°34' W 016°01'1212.3
2015-Mar-21 15:33N 28°29' W 016°14'0 0.2
2015-Mar-21 14:25N 28°29' W 016°14'0 0.0
2015-Mar-21 13:07N 28°29' W 016°14'0 0.0
2015-Mar-21 12:25N 28°29' W 016°14'0 0.0
2015-Mar-21 11:25N 28°29' W 016°14'0 0.0
2015-Mar-21 10:25N 28°29' W 016°14'0 0.0
2015-Mar-21 09:25N 28°29' W 016°14'0 0.0
2015-Mar-21 08:31N 28°29' W 016°14'0 0.0
2015-Mar-21 07:28N 28°29' W 016°14'0 0.0
2015-Mar-21 04:31N 28°29' W 016°14'0 0.0
2015-Mar-21 03:31N 28°29' W 016°14'0 0.0
2015-Mar-20 23:33N 28°29' W 016°14'8 8.6
2015-Mar-20 22:33N 28°26' W 016°05'1413.7
2015-Mar-20 21:33N 28°20' W 015°51'1413.6
2015-Mar-20 20:33N 28°16' W 015°36'1312.9
2015-Mar-20 19:33N 28°11' W 015°23'3 2.7
2015-Mar-20 18:24N 28°09' W 015°25'0 0.0
2015-Mar-20 17:24N 28°09' W 015°25'0 0.0
2015-Mar-20 16:27N 28°09' W 015°25'0 0.0
2015-Mar-20 15:27N 28°09' W 015°25'0 0.0
2015-Mar-20 14:30N 28°09' W 015°25'0 0.0
2015-Mar-20 13:31N 28°09' W 015°25'0 0.0
2015-Mar-20 12:26N 28°09' W 015°25'0 0.0
2015-Mar-20 11:23N 28°09' W 015°25'1 1.7
2015-Mar-20 10:33N 28°07' W 015°24'1211.6
2015-Mar-20 09:33N 28°15' W 015°15'1514.7
2015-Mar-20 08:33N 28°26' W 015°04'1414.4
2015-Mar-20 07:33N 28°37' W 014°53'  
Track history (hours):
 
Tides and Currents Weather Stations Pressure Air Temp Water Temp Dewpoint Dewpoint Depression Visibility Wind Speed Wind Dir Waves Ship Positions

Volcan De Teneguia

Last reported at 2015-Mar-29 19:33 UTC. Time now 2015-Mar-30 02:20 UTC.
Position N 34°57' W 008°41'.

Length 145 m; draft 5.4 m.

Type: Cargo ship. MMSI: 225317000.

Date/timePositionNaut miles runAvg speedWind from/ knotsBaromVisibWave heightAir tempDewpointWater temp
2015-Mar-29 19:33N 34°57' W 008°41'1514.0
2015-Mar-29 18:28N 34°46' W 008°53'4513.8
2015-Mar-29 15:13N 34°14' W 009°32'1513.4
2015-Mar-29 14:05N 34°03' W 009°44'713.4
2015-Mar-29 13:33N 33°58' W 009°51'5213.1
2015-Mar-29 09:33N 33°20' W 010°35'8513.4
2015-Mar-29 03:13N 32°20' W 011°45'25913.2
2015-Mar-28 07:32N 29°14' W 015°15'1312.9
2015-Mar-28 06:33N 29°05' W 015°26'1312.9
2015-Mar-28 05:33N 28°56' W 015°36'1312.9
2015-Mar-28 04:33N 28°47' W 015°47'1313.2
2015-Mar-28 03:33N 28°37' W 015°57'1313.0
2015-Mar-28 02:33N 28°30' W 016°09'4 1.0
2015-Mar-27 22:24N 28°29' W 016°14'0 0.0
2015-Mar-27 21:30N 28°29' W 016°14'0 0.0
2015-Mar-27 20:30N 28°29' W 016°14'9 9.1
2015-Mar-27 19:33N 28°25' W 016°05'1413.9
2015-Mar-27 18:33N 28°21' W 015°50'1414.2
2015-Mar-27 17:33N 28°16' W 015°35'1312.5
2015-Mar-27 16:33N 28°09' W 015°23'2 2.0
2015-Mar-27 15:32N 28°09' W 015°25'0 0.0
2015-Mar-27 14:32N 28°09' W 015°25'0 0.0
2015-Mar-27 13:32N 28°09' W 015°25'0 0.0
2015-Mar-27 12:32N 28°09' W 015°25'0 0.0
2015-Mar-27 11:32N 28°09' W 015°25'0 0.0
2015-Mar-27 10:11N 28°09' W 015°25'0 0.0
2015-Mar-27 09:26N 28°09' W 015°25'0 0.1
2015-Mar-27 08:26N 28°09' W 015°25'0 0.1
2015-Mar-27 07:25N 28°09' W 015°25'2 2.3
2015-Mar-27 06:33N 28°07' W 015°24'1212.1
2015-Mar-27 05:33N 28°16' W 015°14'1312.9
2015-Mar-27 04:33N 28°26' W 015°05'1313.1
2015-Mar-27 03:33N 28°36' W 014°55'  
2015-Mar-21 19:29N 29°03' W 015°28'1313.9
2015-Mar-21 18:33N 28°54' W 015°39'1413.8
2015-Mar-21 17:33N 28°44' W 015°50'1413.9
2015-Mar-21 16:33N 28°34' W 016°01'1212.3
2015-Mar-21 15:33N 28°29' W 016°14'0 0.2
2015-Mar-21 14:25N 28°29' W 016°14'0 0.0
2015-Mar-21 13:07N 28°29' W 016°14'0 0.0
2015-Mar-21 12:25N 28°29' W 016°14'0 0.0
2015-Mar-21 11:25N 28°29' W 016°14'0 0.0
2015-Mar-21 10:25N 28°29' W 016°14'0 0.0
2015-Mar-21 09:25N 28°29' W 016°14'0 0.0
2015-Mar-21 08:31N 28°29' W 016°14'0 0.0
2015-Mar-21 07:28N 28°29' W 016°14'0 0.0
2015-Mar-21 04:31N 28°29' W 016°14'0 0.0
2015-Mar-21 03:31N 28°29' W 016°14'0 0.0
2015-Mar-20 23:33N 28°29' W 016°14'8 8.6
2015-Mar-20 22:33N 28°26' W 016°05'1413.7
2015-Mar-20 21:33N 28°20' W 015°51'1413.6
2015-Mar-20 20:33N 28°16' W 015°36'1312.9
2015-Mar-20 19:33N 28°11' W 015°23'3 2.7
2015-Mar-20 18:24N 28°09' W 015°25'0 0.0
2015-Mar-20 17:24N 28°09' W 015°25'0 0.0
2015-Mar-20 16:27N 28°09' W 015°25'0 0.0
2015-Mar-20 15:27N 28°09' W 015°25'0 0.0
2015-Mar-20 14:30N 28°09' W 015°25'0 0.0
2015-Mar-20 13:31N 28°09' W 015°25'0 0.0
2015-Mar-20 12:26N 28°09' W 015°25'0 0.0
2015-Mar-20 11:23N 28°09' W 015°25'1 1.7
2015-Mar-20 10:33N 28°07' W 015°24'1211.6
2015-Mar-20 09:33N 28°15' W 015°15'1514.7
2015-Mar-20 08:33N 28°26' W 015°04'1414.4
2015-Mar-20 07:33N 28°37' W 014°53'  

Dump ship's entire track history